createdAt,value
2018-08-06T00:02:57.486Z,70.40
2018-08-06T00:06:01.717Z,70.50
2018-08-06T00:09:07.663Z,70.50
2018-08-06T00:12:11.874Z,70.40
2018-08-06T00:15:16.528Z,70.30
2018-08-06T00:18:20.855Z,70.90
2018-08-06T00:21:25.006Z,71.10
2018-08-06T00:24:29.561Z,71.30
2018-08-06T00:27:34.200Z,71.30
2018-08-06T00:30:38.230Z,71.30
2018-08-06T00:33:42.630Z,71.20
2018-08-06T00:36:46.967Z,71.20
2018-08-06T00:39:51.287Z,71.20
2018-08-06T00:42:55.540Z,71.20
2018-08-06T00:45:59.581Z,71.10
2018-08-06T00:49:04.145Z,71.10
2018-08-06T00:52:08.638Z,71.30
2018-08-06T00:55:16.136Z,71.20
2018-08-06T00:58:20.525Z,71.20
2018-08-06T01:01:24.752Z,71.40
2018-08-06T01:04:29.145Z,71.10
2018-08-06T01:07:33.243Z,71.10
2018-08-06T01:10:37.487Z,71.30
2018-08-06T01:13:41.828Z,71.30
2018-08-06T01:16:46.121Z,71.40
2018-08-06T01:19:50.476Z,71.30
2018-08-06T01:22:54.740Z,71.50
2018-08-06T01:25:58.999Z,71.50
2018-08-06T01:29:03.589Z,71.40
2018-08-06T01:32:08.262Z,71.60
2018-08-06T01:35:12.665Z,71.90
2018-08-06T01:38:16.977Z,71.90
2018-08-06T01:41:21.463Z,72.10
2018-08-06T01:44:25.858Z,72.30
2018-08-06T01:47:30.209Z,72.20
2018-08-06T01:53:38.328Z,72.30
2018-08-06T01:56:42.656Z,72.30
2018-08-06T01:59:47.214Z,72.70
2018-08-06T02:02:51.649Z,71.80
2018-08-06T02:05:56.126Z,72.20
2018-08-06T02:09:00.111Z,72.20
2018-08-06T02:12:04.149Z,72.60
2018-08-06T02:15:09.643Z,72.70
2018-08-06T02:18:13.643Z,72.50
2018-08-06T02:21:17.884Z,72.30
2018-08-06T02:24:22.387Z,72.20
2018-08-06T02:27:26.757Z,72.10
2018-08-06T02:30:31.100Z,72.30
2018-08-06T02:33:35.407Z,72.30
2018-08-06T02:36:39.903Z,72.30
2018-08-06T02:39:44.420Z,72.70
2018-08-06T02:42:50.048Z,72.80
2018-08-06T02:45:54.528Z,72.60
2018-08-06T02:48:58.827Z,72.70
2018-08-06T02:52:03.244Z,72.50
2018-08-06T02:55:09.345Z,72.40
2018-08-06T02:58:13.772Z,72.30
2018-08-06T03:01:17.996Z,72.60
2018-08-06T03:04:22.471Z,72.60
2018-08-06T03:07:26.898Z,72.70
2018-08-06T03:10:31.346Z,72.80
2018-08-06T03:13:35.666Z,72.80
2018-08-06T03:16:40.213Z,72.80
2018-08-06T03:19:44.648Z,72.60
2018-08-06T03:22:49.998Z,72.40
2018-08-06T03:25:54.134Z,72.40
2018-08-06T03:28:58.546Z,72.90
2018-08-06T03:32:02.633Z,73.30
2018-08-06T03:35:07.810Z,73.70
2018-08-06T03:38:12.169Z,73.80
2018-08-06T03:41:16.592Z,73.70
2018-08-06T03:44:21.169Z,73.70
2018-08-06T03:47:25.646Z,73.70
2018-08-06T03:50:29.775Z,73.40
2018-08-06T03:53:34.164Z,73.20
2018-08-06T03:56:38.557Z,72.90
2018-08-06T03:59:42.887Z,73.20
2018-08-06T04:02:47.214Z,72.80
2018-08-06T04:05:51.569Z,72.70
2018-08-06T04:08:55.886Z,72.50
2018-08-06T04:11:59.963Z,72.50
2018-08-06T04:15:04.435Z,72.30
2018-08-06T04:18:08.649Z,72.10
2018-08-06T04:21:12.992Z,72.30
2018-08-06T04:24:17.246Z,72.50
2018-08-06T04:27:21.506Z,72.70
2018-08-06T04:30:25.768Z,72.70
2018-08-06T04:33:30.243Z,72.60
2018-08-06T04:36:35.108Z,72.30
2018-08-06T04:39:39.382Z,71.90
2018-08-06T04:42:43.956Z,71.60
2018-08-06T04:45:48.300Z,71.60
2018-08-06T04:48:52.592Z,71.70
2018-08-06T04:51:56.983Z,71.50
2018-08-06T04:55:01.124Z,71.00
2018-08-06T04:58:05.476Z,70.80
2018-08-06T05:01:09.902Z,70.50
2018-08-06T05:04:14.109Z,70.10
2018-08-06T05:07:18.397Z,69.90
2018-08-06T05:10:22.761Z,69.70
2018-08-06T05:13:27.082Z,69.30
2018-08-06T05:16:31.392Z,69.10
2018-08-06T05:19:36.507Z,69.10
2018-08-06T05:22:40.865Z,68.60
2018-08-06T05:25:45.167Z,68.30
2018-08-06T05:28:50.431Z,67.90
2018-08-06T05:31:54.875Z,67.00
2018-08-06T05:34:59.679Z,66.50
2018-08-06T05:38:03.978Z,66.10
2018-08-06T05:41:08.528Z,65.70
2018-08-06T05:44:12.785Z,65.40
2018-08-06T05:47:17.343Z,64.90
2018-08-06T05:50:59.558Z,64.40
2018-08-06T05:54:13.092Z,63.70
2018-08-06T05:57:17.461Z,61.90
2018-08-06T06:06:29.420Z,57.00
2018-08-06T06:09:33.690Z,55.60
2018-08-06T06:12:38.056Z,54.70
2018-08-06T06:18:46.174Z,51.80
2018-08-06T06:21:50.506Z,50.30
2018-08-06T06:24:54.822Z,49.30
2018-08-06T06:27:59.077Z,48.80
2018-08-06T06:31:03.290Z,47.80
2018-08-06T06:34:07.709Z,46.80
2018-08-06T06:37:12.207Z,46.30
2018-08-06T06:40:16.786Z,45.60
2018-08-06T06:43:21.122Z,45.10
2018-08-06T06:46:25.462Z,44.90
2018-08-06T06:49:29.796Z,45.20
2018-08-06T06:52:33.964Z,45.20
2018-08-06T06:55:38.270Z,45.00
2018-08-06T06:58:42.680Z,44.60
2018-08-06T07:01:46.983Z,43.60
2018-08-06T07:04:51.321Z,41.70
2018-08-06T07:07:56.465Z,40.80
2018-08-06T07:14:05.013Z,38.70
2018-08-06T07:17:10.246Z,38.20
2018-08-06T07:20:15.101Z,36.60
2018-08-06T07:23:19.604Z,36.10
2018-08-06T07:26:23.756Z,36.00
2018-08-06T07:29:28.131Z,35.80
2018-08-06T07:32:32.585Z,35.20
2018-08-06T07:35:36.980Z,34.10
2018-08-06T07:38:41.273Z,33.30
2018-08-06T07:41:45.684Z,32.20
2018-08-06T07:44:51.236Z,31.20
2018-08-06T07:47:55.672Z,30.60
2018-08-06T07:51:00.131Z,30.00
2018-08-06T07:54:04.534Z,29.60
2018-08-06T07:57:09.017Z,29.20
2018-08-06T08:00:14.903Z,28.40
2018-08-06T08:03:19.306Z,27.40
2018-08-06T08:06:23.675Z,26.00
2018-08-06T08:09:28.063Z,24.60
2018-08-06T08:12:32.628Z,23.50
2018-08-06T08:15:37.051Z,22.90
2018-08-06T08:18:41.360Z,22.40
2018-08-06T08:21:45.874Z,22.60
2018-08-06T08:24:50.349Z,22.80
2018-08-06T08:27:54.705Z,22.80
2018-08-06T08:30:59.077Z,23.50
2018-08-06T08:34:03.456Z,23.70
2018-08-06T08:37:07.976Z,25.80
2018-08-06T08:40:16.367Z,25.80
2018-08-06T08:43:20.866Z,25.80
2018-08-06T08:46:25.265Z,26.10
2018-08-06T08:49:29.756Z,26.40
2018-08-06T08:55:37.763Z,27.70
2018-08-06T08:58:42.149Z,27.90
2018-08-06T09:01:46.414Z,28.50
2018-08-06T09:04:50.935Z,29.30
2018-08-06T09:07:55.281Z,30.00
2018-08-06T09:10:59.519Z,30.80
2018-08-06T09:14:04.035Z,31.00
2018-08-06T09:17:08.259Z,31.90
2018-08-06T09:20:12.860Z,32.80
2018-08-06T09:23:17.217Z,33.60
2018-08-06T09:26:21.908Z,34.30
2018-08-06T09:29:26.248Z,35.50
2018-08-06T09:32:30.767Z,36.10
2018-08-06T09:35:34.930Z,36.40
2018-08-06T09:38:39.382Z,36.70
2018-08-06T09:41:43.578Z,36.40
2018-08-06T09:44:48.209Z,37.00
2018-08-06T09:47:54.958Z,37.80
2018-08-06T09:51:00.212Z,38.00
2018-08-06T09:54:05.151Z,37.80
2018-08-06T09:57:09.617Z,36.50
2018-08-06T10:00:21.149Z,36.50
2018-08-06T10:03:25.587Z,36.90
2018-08-06T10:06:30.369Z,36.70
2018-08-06T10:09:34.610Z,36.60
2018-08-06T10:12:38.935Z,36.20
2018-08-06T10:15:43.182Z,35.70
2018-08-06T10:18:47.522Z,34.90
2018-08-06T10:21:51.946Z,35.80
2018-08-06T10:24:56.272Z,36.00
2018-08-06T10:28:00.674Z,35.60
2018-08-06T10:34:09.011Z,36.80
2018-08-06T10:37:13.072Z,37.50
2018-08-06T10:40:18.743Z,37.70
2018-08-06T10:43:23.189Z,38.10
2018-08-06T10:46:27.472Z,36.90
2018-08-06T10:49:31.825Z,36.70
2018-08-06T10:52:36.689Z,36.70
2018-08-06T10:55:41.190Z,37.10
2018-08-06T10:58:45.633Z,38.20
2018-08-06T11:01:49.934Z,39.20
2018-08-06T11:04:54.400Z,38.60
2018-08-06T11:07:58.794Z,38.40
2018-08-06T11:11:02.866Z,38.30
2018-08-06T11:14:07.399Z,38.90
2018-08-06T11:17:11.818Z,38.60
2018-08-06T11:20:16.835Z,39.20
2018-08-06T11:23:21.057Z,40.20
2018-08-06T11:26:25.554Z,40.30
2018-08-06T11:29:29.986Z,39.50
2018-08-06T11:32:34.266Z,38.90
2018-08-06T11:35:38.589Z,39.00
2018-08-06T11:38:42.870Z,38.90
2018-08-06T11:41:47.298Z,38.40
2018-08-06T11:44:51.570Z,38.80
2018-08-06T11:47:55.897Z,38.50
2018-08-06T11:51:00.179Z,37.90
2018-08-06T11:54:04.740Z,37.20
2018-08-06T11:57:08.987Z,37.80
2018-08-06T12:00:17.278Z,36.90
2018-08-06T12:03:21.704Z,37.20
2018-08-06T12:06:26.018Z,37.00
2018-08-06T12:09:30.709Z,37.90
2018-08-06T12:12:35.076Z,36.40
2018-08-06T12:15:39.318Z,36.40
2018-08-06T12:18:44.139Z,36.50
2018-08-06T12:21:48.692Z,36.70
2018-08-06T12:24:52.773Z,36.80
2018-08-06T12:27:57.167Z,36.70
2018-08-06T12:31:01.605Z,36.40
2018-08-06T12:34:06.317Z,36.60
2018-08-06T12:37:10.653Z,37.30
2018-08-06T12:40:16.319Z,37.20
2018-08-06T12:43:20.518Z,37.90
2018-08-06T12:46:24.913Z,37.60
2018-08-06T12:52:33.047Z,38.40
2018-08-06T12:55:37.126Z,37.90
2018-08-06T12:58:41.755Z,38.30
2018-08-06T13:01:46.146Z,38.30
2018-08-06T13:04:50.516Z,37.70
2018-08-06T13:07:54.835Z,38.10
2018-08-06T13:10:59.235Z,38.50
2018-08-06T13:14:04.004Z,38.60
2018-08-06T13:17:08.376Z,39.70
2018-08-06T13:20:12.752Z,40.90
2018-08-06T13:23:17.091Z,39.60
2018-08-06T13:26:20.986Z,39.40
2018-08-06T13:29:24.923Z,39.90
2018-08-06T13:32:28.990Z,39.80
2018-08-06T13:35:33.199Z,40.10
2018-08-06T13:38:37.406Z,40.10
2018-08-06T13:41:41.705Z,39.20
2018-08-06T13:44:46.086Z,38.70
2018-08-06T13:47:50.582Z,38.50
2018-08-06T13:50:54.886Z,38.20
2018-08-06T13:53:59.068Z,38.90
2018-08-06T13:57:03.588Z,39.40
2018-08-06T14:00:17.596Z,38.80
2018-08-06T14:03:22.016Z,38.80
2018-08-06T14:06:26.291Z,37.50
2018-08-06T14:09:30.496Z,36.90
2018-08-06T14:12:34.756Z,36.30
2018-08-06T14:15:38.927Z,36.80
2018-08-06T14:18:43.155Z,37.40
2018-08-06T14:21:47.493Z,37.50
2018-08-06T14:24:51.814Z,38.30
2018-08-06T14:27:56.407Z,38.60
2018-08-06T14:31:00.862Z,39.00
2018-08-06T14:34:05.502Z,38.30
2018-08-06T14:37:09.852Z,38.30
2018-08-06T14:40:18.287Z,37.90
2018-08-06T14:43:22.831Z,37.80
2018-08-06T14:46:27.183Z,37.70
2018-08-06T14:49:31.498Z,37.50
2018-08-06T14:52:35.786Z,36.80
2018-08-06T14:55:40.158Z,36.20
2018-08-06T15:01:48.751Z,36.20
2018-08-06T15:04:53.211Z,36.70
2018-08-06T15:07:57.530Z,37.60
2018-08-06T15:11:01.790Z,37.10
2018-08-06T15:14:06.500Z,36.10
2018-08-06T15:17:10.781Z,36.70
2018-08-06T15:20:16.398Z,38.10
2018-08-06T15:23:20.652Z,38.20
2018-08-06T15:26:25.123Z,40.70
2018-08-06T15:29:29.513Z,40.30
2018-08-06T15:32:33.952Z,39.00
2018-08-06T15:35:38.274Z,38.70
2018-08-06T15:38:42.608Z,38.20
2018-08-06T15:41:46.963Z,37.20
2018-08-06T15:44:51.115Z,36.90
2018-08-06T15:47:55.434Z,38.30
2018-08-06T15:50:59.892Z,39.30
2018-08-06T15:54:04.230Z,39.90
2018-08-06T15:57:08.698Z,39.70
2018-08-06T16:00:15.388Z,40.20
2018-08-06T16:03:20.008Z,40.10
2018-08-06T16:06:24.459Z,39.80
2018-08-06T16:09:28.908Z,40.20
2018-08-06T16:12:33.185Z,40.60
2018-08-06T16:15:37.576Z,41.30
2018-08-06T16:18:42.079Z,41.50
2018-08-06T16:21:46.217Z,41.60
2018-08-06T16:24:50.912Z,41.20
2018-08-06T16:27:55.254Z,41.20
2018-08-06T16:30:59.797Z,41.30
2018-08-06T16:34:04.092Z,40.80
2018-08-06T16:37:08.407Z,40.60
2018-08-06T16:40:13.344Z,40.80
2018-08-06T16:43:17.927Z,40.80
2018-08-06T16:46:22.497Z,42.10
2018-08-06T16:49:27.013Z,42.50
2018-08-06T16:52:31.424Z,42.70
2018-08-06T16:55:35.795Z,42.60
2018-08-06T16:58:40.103Z,42.60
2018-08-06T17:01:44.396Z,43.60
2018-08-06T17:04:48.925Z,44.20
2018-08-06T17:07:53.254Z,44.50
2018-08-06T17:10:57.711Z,44.90
2018-08-06T17:14:02.047Z,45.40
2018-08-06T17:17:06.308Z,45.50
2018-08-06T17:20:18.611Z,45.80
2018-08-06T17:23:22.960Z,46.20
2018-08-06T17:26:27.660Z,46.50
2018-08-06T17:29:31.902Z,46.70
2018-08-06T17:32:36.513Z,46.80
2018-08-06T17:35:40.920Z,46.90
2018-08-06T17:38:45.439Z,46.90
2018-08-06T17:41:49.538Z,47.20
2018-08-06T17:44:53.746Z,47.30
2018-08-06T17:47:58.094Z,47.60
2018-08-06T17:51:02.360Z,47.80
2018-08-06T17:54:06.703Z,47.90
2018-08-06T17:57:11.163Z,48.30
2018-08-06T18:00:15.874Z,48.50
2018-08-06T18:03:20.242Z,48.60
2018-08-06T18:06:24.638Z,48.90
2018-08-06T18:09:29.186Z,49.10
2018-08-06T18:12:33.606Z,49.10
2018-08-06T18:15:38.087Z,49.20
2018-08-06T18:18:42.676Z,49.30
2018-08-06T18:21:47.470Z,49.50
2018-08-06T18:24:51.794Z,50.50
2018-08-06T18:27:56.400Z,50.20
2018-08-06T18:31:00.768Z,50.30
2018-08-06T18:34:05.469Z,50.70
2018-08-06T18:37:09.953Z,51.00
2018-08-06T18:40:15.102Z,51.10
2018-08-06T18:43:19.621Z,51.40
2018-08-06T18:46:24.077Z,51.50
2018-08-06T18:49:28.617Z,52.10
2018-08-06T18:52:33.416Z,52.60
2018-08-06T18:55:37.746Z,53.20
2018-08-06T18:58:42.605Z,53.60
2018-08-06T19:01:46.820Z,54.30
2018-08-06T19:04:51.444Z,54.60
2018-08-06T19:07:55.710Z,54.80
2018-08-06T19:11:00.067Z,54.80
2018-08-06T19:14:09.529Z,55.60
2018-08-06T19:17:13.927Z,55.30
2018-08-06T19:20:18.971Z,55.40
2018-08-06T19:23:23.516Z,55.60
2018-08-06T19:26:27.922Z,55.90
2018-08-06T19:29:33.299Z,56.10
2018-08-06T19:32:37.932Z,56.30
2018-08-06T19:35:42.067Z,56.40
2018-08-06T19:38:46.787Z,56.60
2018-08-06T19:41:51.687Z,56.80
2018-08-06T19:44:55.938Z,57.00
2018-08-06T19:48:00.463Z,57.30
2018-08-06T19:51:05.590Z,57.40
2018-08-06T19:54:11.121Z,57.60
2018-08-06T19:57:15.969Z,57.70
2018-08-06T20:00:20.721Z,57.80
2018-08-06T20:03:24.752Z,58.00
2018-08-06T20:06:29.179Z,58.20
2018-08-06T20:09:33.508Z,58.40
2018-08-06T20:12:38.826Z,58.70
2018-08-06T20:15:43.598Z,58.80
2018-08-06T20:18:48.199Z,59.00
2018-08-06T20:21:52.852Z,59.20
2018-08-06T20:24:57.075Z,59.20
2018-08-06T20:28:01.823Z,59.10
2018-08-06T20:31:06.105Z,59.10
2018-08-06T20:34:11.024Z,59.40
2018-08-06T20:37:15.521Z,59.50
2018-08-06T20:40:20.037Z,59.60
2018-08-06T20:43:24.460Z,59.70
2018-08-06T20:46:28.831Z,59.90
2018-08-06T20:49:33.211Z,60.00
2018-08-06T20:52:37.603Z,60.20
2018-08-06T20:55:42.026Z,60.40
2018-08-06T20:58:46.258Z,60.40
2018-08-06T21:01:50.646Z,60.50
2018-08-06T21:04:54.779Z,60.60
2018-08-06T21:07:59.101Z,61.50
2018-08-06T21:11:03.345Z,60.90
2018-08-06T21:14:07.833Z,61.20
2018-08-06T21:17:12.506Z,61.30
2018-08-06T21:20:18.010Z,61.50
2018-08-06T21:23:22.274Z,61.70
2018-08-06T21:26:26.688Z,61.80
2018-08-06T21:29:30.974Z,61.80
2018-08-06T21:32:35.235Z,61.80
2018-08-06T21:35:39.464Z,62.00
2018-08-06T21:38:43.636Z,61.90
2018-08-06T21:41:48.036Z,61.80
2018-08-06T21:44:52.299Z,61.90
2018-08-06T21:48:03.290Z,61.90
2018-08-06T21:51:07.501Z,61.90
2018-08-06T21:54:11.938Z,62.20
2018-08-06T21:57:16.236Z,62.50
2018-08-06T22:00:29.246Z,62.50
2018-08-06T22:03:33.984Z,62.50
2018-08-06T22:06:38.448Z,62.70
2018-08-06T22:09:42.754Z,62.90
2018-08-06T22:12:46.920Z,62.80
2018-08-06T22:15:51.246Z,62.80
2018-08-06T22:18:55.704Z,62.90
2018-08-06T22:22:00.152Z,63.30
2018-08-06T22:25:05.658Z,63.50
2018-08-06T22:28:11.923Z,63.50
2018-08-06T22:31:16.262Z,63.70
2018-08-06T22:34:20.617Z,63.80
2018-08-06T22:37:25.090Z,64.10
2018-08-06T22:40:29.348Z,64.20
2018-08-06T22:43:33.981Z,64.40
2018-08-06T22:46:38.232Z,64.50
2018-08-06T22:49:42.809Z,64.50
2018-08-06T22:52:47.263Z,64.50
2018-08-06T22:56:03.667Z,64.50
2018-08-06T22:59:09.141Z,64.70
2018-08-06T23:02:13.679Z,64.80
2018-08-06T23:05:18.231Z,64.90
2018-08-06T23:08:23.063Z,65.00
2018-08-06T23:11:28.198Z,65.30
2018-08-06T23:14:32.626Z,65.60
2018-08-06T23:17:37.014Z,65.80
2018-08-06T23:20:41.687Z,65.80
2018-08-06T23:23:46.718Z,65.90
2018-08-06T23:26:50.910Z,65.90
2018-08-06T23:29:55.494Z,65.90
2018-08-06T23:32:59.736Z,65.90
2018-08-06T23:36:04.058Z,66.00
2018-08-06T23:39:10.309Z,66.20
2018-08-06T23:42:14.808Z,66.10
2018-08-06T23:45:19.140Z,66.20
2018-08-06T23:48:23.809Z,66.20
2018-08-06T23:51:28.154Z,66.40
2018-08-06T23:54:32.524Z,66.40
2018-08-06T23:57:37.008Z,66.20
